createdAt,value
2018-09-08T00:00:32.410Z,16.00
2018-09-08T00:03:02.858Z,16.00
2018-09-08T00:05:32.560Z,15.90
2018-09-08T00:08:01.058Z,15.90
2018-09-08T00:10:29.582Z,15.90
2018-09-08T00:12:58.043Z,15.90
2018-09-08T00:15:31.770Z,15.90
2018-09-08T00:18:05.505Z,15.90
2018-09-08T00:20:39.219Z,15.90
2018-09-08T00:23:21.255Z,15.80
2018-09-08T00:25:55.099Z,15.90
2018-09-08T00:28:27.783Z,15.80
2018-09-08T00:30:57.174Z,15.80
2018-09-08T00:33:25.639Z,15.80
2018-09-08T00:35:54.115Z,15.70
2018-09-08T00:38:22.686Z,15.70
2018-09-08T00:40:51.142Z,15.70
2018-09-08T00:43:19.635Z,15.60
2018-09-08T00:45:48.266Z,15.60
2018-09-08T00:48:16.693Z,15.60
2018-09-08T00:50:45.155Z,15.60
2018-09-08T00:53:13.607Z,15.60
2018-09-08T00:55:42.071Z,15.50
2018-09-08T00:58:10.546Z,15.50
2018-09-08T01:00:39.015Z,15.40
2018-09-08T01:03:07.471Z,15.50
2018-09-08T01:05:35.928Z,15.40
2018-09-08T01:08:04.399Z,15.40
2018-09-08T01:10:32.914Z,15.30
2018-09-08T01:13:01.362Z,15.30
2018-09-08T01:15:29.831Z,15.30
2018-09-08T01:17:58.417Z,15.30
2018-09-08T01:20:26.876Z,15.20
2018-09-08T01:22:55.330Z,15.20
2018-09-08T01:25:23.790Z,15.20
2018-09-08T01:27:52.286Z,15.20
2018-09-08T01:30:20.760Z,15.10
2018-09-08T01:32:49.211Z,15.20
2018-09-08T01:35:17.712Z,15.20
2018-09-08T01:37:46.502Z,15.20
2018-09-08T01:40:14.968Z,15.10
2018-09-08T01:42:43.450Z,15.10
2018-09-08T01:45:11.907Z,15.10
2018-09-08T01:47:41.043Z,15.00
2018-09-08T01:50:09.555Z,15.00
2018-09-08T01:52:38.007Z,15.00
2018-09-08T01:55:06.479Z,15.00
2018-09-08T01:57:35.304Z,15.00
2018-09-08T02:00:09.143Z,15.00
2018-09-08T02:02:40.533Z,15.00
2018-09-08T02:05:09.188Z,14.90
2018-09-08T02:07:37.937Z,14.90
2018-09-08T02:10:06.434Z,14.90
2018-09-08T02:12:34.895Z,14.90
2018-09-08T02:15:03.399Z,14.90
2018-09-08T02:17:31.902Z,14.90
2018-09-08T02:20:00.358Z,14.80
2018-09-08T02:22:28.838Z,14.80
2018-09-08T02:24:57.302Z,14.80
2018-09-08T02:27:25.763Z,14.80
2018-09-08T02:29:54.223Z,14.80
2018-09-08T02:32:22.683Z,14.80
2018-09-08T02:34:51.143Z,14.70
2018-09-08T02:37:19.595Z,14.70
2018-09-08T02:39:48.066Z,14.70
2018-09-08T02:42:16.525Z,14.70
2018-09-08T02:44:45.002Z,14.70
2018-09-08T02:47:13.479Z,14.60
2018-09-08T02:49:53.439Z,14.70
2018-09-08T02:52:20.746Z,14.70
2018-09-08T02:54:48.060Z,14.60
2018-09-08T02:57:15.370Z,14.60
2018-09-08T02:59:42.688Z,14.60
2018-09-08T03:02:10.012Z,14.60
2018-09-08T03:04:37.335Z,14.50
2018-09-08T03:07:09.894Z,14.50
2018-09-08T03:09:37.202Z,14.50
2018-09-08T03:12:04.514Z,14.50
2018-09-08T03:14:31.862Z,14.50
2018-09-08T03:16:59.206Z,14.50
2018-09-08T03:19:26.531Z,14.40
2018-09-08T03:21:53.862Z,14.40
2018-09-08T03:24:21.195Z,14.40
2018-09-08T03:26:48.507Z,14.40
2018-09-08T03:29:15.834Z,14.30
2018-09-08T03:31:43.151Z,14.40
2018-09-08T03:34:10.655Z,14.30
2018-09-08T03:36:37.966Z,14.30
2018-09-08T03:39:05.655Z,14.30
2018-09-08T03:41:33.545Z,14.30
2018-09-08T03:44:00.859Z,14.20
2018-09-08T03:46:28.170Z,14.30
2018-09-08T03:48:55.490Z,14.30
2018-09-08T03:51:22.808Z,14.30
2018-09-08T03:53:50.115Z,14.30
2018-09-08T03:56:17.439Z,14.30
2018-09-08T03:58:44.758Z,14.30
2018-09-08T04:01:12.070Z,14.20
2018-09-08T04:03:40.542Z,14.20
2018-09-08T04:06:09.006Z,14.00
2018-09-08T04:08:37.454Z,14.00
2018-09-08T04:11:06.054Z,14.00
2018-09-08T04:13:34.529Z,14.00
2018-09-08T04:16:03.002Z,13.90
2018-09-08T04:18:31.482Z,13.90
2018-09-08T04:21:00.202Z,13.90
2018-09-08T04:23:28.658Z,13.90
2018-09-08T04:25:57.127Z,14.00
2018-09-08T04:28:25.594Z,13.90
2018-09-08T04:30:54.071Z,13.90
2018-09-08T04:33:22.634Z,13.90
2018-09-08T04:35:51.143Z,13.90
2018-09-08T04:38:19.598Z,13.90
2018-09-08T04:40:48.104Z,14.00
2018-09-08T04:43:16.565Z,13.90
2018-09-08T04:45:45.027Z,14.00
2018-09-08T04:48:13.700Z,14.00
2018-09-08T04:50:42.602Z,14.00
2018-09-08T04:53:11.050Z,14.10
2018-09-08T04:55:39.602Z,14.10
2018-09-08T04:58:08.078Z,14.20
2018-09-08T05:00:36.780Z,14.30
2018-09-08T05:03:05.292Z,14.30
2018-09-08T05:05:33.755Z,14.40
2018-09-08T05:08:02.311Z,14.50
2018-09-08T05:10:30.880Z,14.50
2018-09-08T05:12:59.346Z,14.60
2018-09-08T05:15:27.841Z,14.70
2018-09-08T05:17:56.319Z,14.70
2018-09-08T05:20:24.791Z,14.80
2018-09-08T05:22:53.293Z,14.90
2018-09-08T05:25:21.775Z,14.90
2018-09-08T05:27:50.255Z,15.00
2018-09-08T05:30:19.585Z,15.00
2018-09-08T05:32:48.043Z,15.00
2018-09-08T05:35:16.498Z,15.00
2018-09-08T05:37:44.969Z,15.10
2018-09-08T05:40:13.422Z,15.10
2018-09-08T05:42:41.887Z,15.20
2018-09-08T05:45:10.452Z,15.30
2018-09-08T05:47:38.944Z,15.30
2018-09-08T05:50:07.808Z,15.40
2018-09-08T05:52:36.284Z,15.50
2018-09-08T05:55:06.722Z,15.60
2018-09-08T05:57:35.177Z,15.70
2018-09-08T06:00:04.083Z,15.80
2018-09-08T06:02:32.592Z,15.90
2018-09-08T06:05:01.077Z,16.00
2018-09-08T06:07:29.547Z,16.10
2018-09-08T06:09:58.211Z,16.20
2018-09-08T06:12:26.679Z,16.30
2018-09-08T06:14:55.452Z,16.40
2018-09-08T06:17:23.978Z,16.40
2018-09-08T06:19:52.419Z,16.60
2018-09-08T06:22:20.887Z,16.60
2018-09-08T06:24:49.355Z,16.80
2018-09-08T06:27:17.842Z,16.90
2018-09-08T06:29:46.430Z,17.00
2018-09-08T06:32:15.016Z,17.00
2018-09-08T06:34:43.487Z,17.10
2018-09-08T06:37:11.971Z,17.20
2018-09-08T06:39:40.435Z,17.10
2018-09-08T06:42:08.920Z,17.20
2018-09-08T06:44:37.390Z,17.30
2018-09-08T06:47:05.906Z,17.40
2018-09-08T06:49:34.391Z,17.50
2018-09-08T06:52:02.860Z,17.60
2018-09-08T06:54:31.422Z,17.70
2018-09-08T06:56:59.890Z,17.90
2018-09-08T06:59:28.386Z,17.90
2018-09-08T07:01:56.843Z,18.00
2018-09-08T07:04:25.343Z,18.20
2018-09-08T07:06:53.822Z,18.40
2018-09-08T07:09:22.298Z,18.70
2018-09-08T07:11:50.760Z,19.00
2018-09-08T07:14:19.295Z,19.20
2018-09-08T07:16:47.759Z,19.30
2018-09-08T07:19:16.218Z,19.40
2018-09-08T07:21:44.679Z,19.70
2018-09-08T07:24:13.132Z,19.80
2018-09-08T07:26:41.579Z,19.90
2018-09-08T07:29:10.051Z,20.20
2018-09-08T07:31:38.582Z,20.30
2018-09-08T07:34:07.115Z,20.40
2018-09-08T07:36:35.586Z,20.30
2018-09-08T07:39:05.758Z,20.50
2018-09-08T07:41:34.234Z,20.70
2018-09-08T07:44:02.683Z,20.60
2018-09-08T07:46:31.175Z,20.60
2018-09-08T07:48:59.649Z,20.70
2018-09-08T07:51:28.132Z,20.70
2018-09-08T07:53:57.406Z,20.60
2018-09-08T07:56:25.889Z,20.40
2018-09-08T07:58:54.356Z,20.40
2018-09-08T08:01:22.859Z,20.40
2018-09-08T08:03:51.323Z,20.30
2018-09-08T08:06:19.799Z,20.30
2018-09-08T08:08:48.266Z,20.00
2018-09-08T08:11:16.747Z,20.00
2018-09-08T08:13:45.212Z,19.80
2018-09-08T08:16:13.689Z,19.80
2018-09-08T08:18:42.178Z,19.80
2018-09-08T08:21:10.642Z,19.60
2018-09-08T08:23:39.121Z,19.60
2018-09-08T08:26:07.644Z,19.50
2018-09-08T08:28:36.086Z,19.50
2018-09-08T08:31:04.572Z,19.50
2018-09-08T08:33:33.059Z,19.50
2018-09-08T08:36:01.603Z,19.40
2018-09-08T08:38:30.363Z,19.40
2018-09-08T08:40:58.928Z,19.40
2018-09-08T08:43:27.391Z,19.40
2018-09-08T08:45:55.855Z,19.60
2018-09-08T08:48:24.310Z,19.60
2018-09-08T08:51:04.053Z,19.60
2018-09-08T08:53:43.780Z,19.70
2018-09-08T08:56:12.260Z,19.70
2018-09-08T08:58:40.742Z,19.90
2018-09-08T09:01:09.193Z,19.90
2018-09-08T09:03:37.662Z,20.00
2018-09-08T09:06:06.145Z,20.00
2018-09-08T09:08:34.940Z,20.10
2018-09-08T09:11:03.078Z,20.30
2018-09-08T09:13:31.717Z,20.50
2018-09-08T09:16:00.127Z,20.70
2018-09-08T09:18:40.321Z,20.80
2018-09-08T09:21:19.491Z,21.00
2018-09-08T09:25:00.920Z,21.20
2018-09-08T09:27:30.335Z,21.20
2018-09-08T09:29:59.122Z,21.50
2018-09-08T09:32:27.661Z,21.70
2018-09-08T09:34:56.114Z,21.80
2018-09-08T09:37:24.626Z,21.70
2018-09-08T09:39:53.666Z,21.60
2018-09-08T09:42:22.118Z,21.60
2018-09-08T09:44:50.604Z,21.40
2018-09-08T09:47:19.115Z,21.50
2018-09-08T09:49:47.610Z,21.40
2018-09-08T09:52:16.115Z,21.30
2018-09-08T09:54:44.587Z,21.30
2018-09-08T09:57:13.107Z,21.40
2018-09-08T09:59:41.578Z,21.30
2018-09-08T10:02:44.375Z,21.40
2018-09-08T10:05:15.726Z,21.70
2018-09-08T10:07:44.246Z,21.80
2018-09-08T10:10:14.281Z,21.70
2018-09-08T10:12:42.763Z,21.60
2018-09-08T10:15:11.552Z,21.70
2018-09-08T10:17:40.930Z,21.70
2018-09-08T10:20:11.302Z,21.60
2018-09-08T10:22:39.767Z,21.50
2018-09-08T10:25:10.349Z,21.40
2018-09-08T10:27:38.800Z,21.40
2018-09-08T10:30:08.263Z,21.40
2018-09-08T10:32:36.726Z,21.40
2018-09-08T10:35:05.646Z,21.60
2018-09-08T10:37:34.165Z,21.80
2018-09-08T10:40:03.202Z,22.10
2018-09-08T10:42:31.682Z,22.10
2018-09-08T10:45:00.191Z,22.10
2018-09-08T10:47:28.694Z,22.20
2018-09-08T10:49:57.213Z,22.20
2018-09-08T10:52:32.571Z,22.20
2018-09-08T10:55:01.158Z,22.30
2018-09-08T10:57:29.615Z,22.40
2018-09-08T10:59:58.621Z,22.70
2018-09-08T11:02:27.285Z,22.70
2018-09-08T11:04:55.561Z,22.70
2018-09-08T11:07:24.047Z,22.80
2018-09-08T11:09:52.516Z,23.00
2018-09-08T11:12:21.006Z,23.20
2018-09-08T11:14:49.539Z,23.20
2018-09-08T11:17:18.143Z,23.40
2018-09-08T11:19:46.615Z,23.40
2018-09-08T11:22:15.579Z,23.40
2018-09-08T11:24:44.131Z,23.40
2018-09-08T11:27:13.198Z,23.40
2018-09-08T11:29:41.654Z,23.50
2018-09-08T11:32:10.167Z,23.70
2018-09-08T11:34:38.623Z,24.00
2018-09-08T11:37:07.107Z,24.10
2018-09-08T11:39:35.607Z,24.00
2018-09-08T11:42:04.078Z,24.30
2018-09-08T11:44:34.320Z,24.50
2018-09-08T11:47:02.807Z,24.40
2018-09-08T11:49:31.434Z,24.50
2018-09-08T11:52:00.010Z,24.50
2018-09-08T11:54:28.795Z,24.70
2018-09-08T11:56:57.522Z,25.10
2018-09-08T11:59:26.190Z,25.10
2018-09-08T12:02:07.868Z,24.90
2018-09-08T12:04:36.498Z,24.90
2018-09-08T12:07:04.975Z,24.70
2018-09-08T12:09:33.990Z,24.80
2018-09-08T12:12:02.546Z,24.80
2018-09-08T12:14:31.011Z,24.40
2018-09-08T12:16:59.484Z,24.30
2018-09-08T12:19:27.940Z,24.30
2018-09-08T12:21:56.747Z,24.40
2018-09-08T12:24:25.919Z,24.40
2018-09-08T12:26:54.374Z,24.20
2018-09-08T12:29:22.837Z,24.00
2018-09-08T12:31:51.300Z,23.70
2018-09-08T12:34:19.795Z,23.80
2018-09-08T12:36:48.245Z,24.00
2018-09-08T12:39:16.849Z,24.20
2018-09-08T12:41:45.343Z,24.10
2018-09-08T12:44:13.810Z,24.30
2018-09-08T12:46:42.311Z,24.30
2018-09-08T12:49:10.779Z,24.70
2018-09-08T12:51:39.224Z,24.80
2018-09-08T12:54:07.674Z,25.10
2018-09-08T12:56:36.147Z,25.40
2018-09-08T12:59:04.726Z,25.30
2018-09-08T13:01:33.187Z,25.30
2018-09-08T13:04:01.647Z,25.40
2018-09-08T13:06:30.190Z,25.10
2018-09-08T13:08:58.671Z,24.70
2018-09-08T13:11:27.195Z,24.30
2018-09-08T13:13:55.714Z,24.30
2018-09-08T13:16:24.186Z,24.30
2018-09-08T13:18:52.668Z,24.20
2018-09-08T13:21:21.138Z,24.20
2018-09-08T13:23:49.599Z,24.00
2018-09-08T13:26:18.046Z,24.00
2018-09-08T13:28:46.507Z,24.00
2018-09-08T13:31:15.012Z,24.00
2018-09-08T13:33:43.499Z,24.00
2018-09-08T13:36:11.930Z,24.00
2018-09-08T13:38:40.395Z,24.00
2018-09-08T13:41:08.903Z,23.80
2018-09-08T13:43:37.437Z,23.80
2018-09-08T13:46:05.917Z,23.70
2018-09-08T13:48:34.392Z,23.60
2018-09-08T13:51:02.862Z,23.40
2018-09-08T13:53:31.419Z,23.40
2018-09-08T13:55:59.879Z,23.40
2018-09-08T13:58:28.486Z,23.60
2018-09-08T14:00:56.953Z,23.80
2018-09-08T14:03:25.446Z,24.20
2018-09-08T14:05:53.894Z,24.50
2018-09-08T14:08:22.364Z,24.30
2018-09-08T14:10:50.834Z,24.40
2018-09-08T14:13:19.303Z,24.40
2018-09-08T14:15:47.871Z,24.30
2018-09-08T14:18:16.332Z,24.30
2018-09-08T14:20:44.885Z,24.10
2018-09-08T14:23:13.354Z,24.00
2018-09-08T14:25:41.806Z,23.80
2018-09-08T14:28:10.259Z,23.70
2018-09-08T14:30:38.722Z,23.50
2018-09-08T14:33:07.166Z,23.20
2018-09-08T14:35:35.635Z,23.00
2018-09-08T14:38:04.101Z,22.90
2018-09-08T14:40:32.573Z,22.70
2018-09-08T14:43:01.035Z,22.50
2018-09-08T14:45:29.571Z,22.50
2018-09-08T14:47:58.027Z,22.60
2018-09-08T14:50:26.507Z,22.70
2018-09-08T14:52:54.970Z,22.70
2018-09-08T14:55:23.430Z,22.90
2018-09-08T14:57:52.508Z,23.20
2018-09-08T15:00:21.018Z,23.30
2018-09-08T15:02:49.510Z,23.40
2018-09-08T15:05:17.995Z,23.40
2018-09-08T15:07:46.447Z,23.70
2018-09-08T15:10:14.930Z,23.80
2018-09-08T15:12:43.389Z,24.00
2018-09-08T15:15:11.999Z,23.90
2018-09-08T15:17:40.443Z,23.80
2018-09-08T15:20:08.939Z,23.60
2018-09-08T15:22:37.408Z,23.50
2018-09-08T15:25:06.181Z,23.30
2018-09-08T15:27:34.649Z,23.20
2018-09-08T15:30:03.475Z,23.10
2018-09-08T15:32:31.925Z,23.10
2018-09-08T15:35:00.373Z,23.10
2018-09-08T15:37:31.806Z,22.80
2018-09-08T15:40:00.284Z,22.80
2018-09-08T15:42:28.767Z,22.80
2018-09-08T15:44:57.219Z,22.90
2018-09-08T15:47:25.693Z,23.10
2018-09-08T15:49:54.183Z,22.90
2018-09-08T15:52:22.634Z,23.00
2018-09-08T15:54:51.106Z,22.90
2018-09-08T15:57:19.595Z,23.00
2018-09-08T15:59:48.055Z,23.20
2018-09-08T16:02:16.515Z,23.10
2018-09-08T16:04:45.011Z,23.10
2018-09-08T16:07:13.482Z,23.00
2018-09-08T16:09:41.931Z,22.90
2018-09-08T16:12:10.389Z,22.90
2018-09-08T16:14:38.859Z,22.80
2018-09-08T16:17:07.315Z,22.80
2018-09-08T16:19:35.783Z,22.60
2018-09-08T16:22:04.326Z,22.60
2018-09-08T16:24:32.878Z,22.50
2018-09-08T16:27:01.339Z,22.60
2018-09-08T16:29:30.079Z,22.60
2018-09-08T16:31:58.506Z,22.50
2018-09-08T16:34:26.983Z,22.40
2018-09-08T16:36:55.455Z,22.20
2018-09-08T16:39:23.943Z,22.10
2018-09-08T16:41:52.408Z,22.00
2018-09-08T16:44:20.958Z,21.90
2018-09-08T16:46:49.439Z,21.70
2018-09-08T16:49:17.906Z,21.50
2018-09-08T16:51:46.443Z,21.20
2018-09-08T16:54:14.911Z,20.80
2018-09-08T16:56:43.370Z,20.60
2018-09-08T16:59:11.829Z,20.40
2018-09-08T17:01:40.311Z,20.20
2018-09-08T17:04:08.770Z,20.00
2018-09-08T17:06:37.215Z,20.00
2018-09-08T17:09:07.135Z,19.80
2018-09-08T17:11:36.110Z,19.80
2018-09-08T17:14:04.603Z,19.70
2018-09-08T17:16:33.106Z,19.60
2018-09-08T17:19:01.563Z,19.50
2018-09-08T17:21:30.079Z,19.40
2018-09-08T17:23:58.530Z,19.30
2018-09-08T17:26:26.983Z,19.20
2018-09-08T17:28:55.441Z,19.10
2018-09-08T17:31:23.891Z,19.10
2018-09-08T17:33:52.354Z,19.00
2018-09-08T17:36:20.815Z,18.90
2018-09-08T17:38:49.314Z,18.80
2018-09-08T17:41:17.735Z,18.70
2018-09-08T17:43:46.195Z,18.70
2018-09-08T17:46:14.923Z,18.60
2018-09-08T17:48:43.470Z,18.50
2018-09-08T17:51:11.934Z,18.50
2018-09-08T17:53:40.391Z,18.40
2018-09-08T17:56:08.850Z,18.30
2018-09-08T17:58:37.313Z,18.20
2018-09-08T18:01:05.940Z,18.10
2018-09-08T18:03:34.406Z,18.00
2018-09-08T18:06:02.864Z,17.90
2018-09-08T18:08:31.448Z,17.90
2018-09-08T18:10:59.932Z,17.90
2018-09-08T18:13:28.391Z,17.80
2018-09-08T18:15:56.843Z,17.80
2018-09-08T18:18:25.314Z,17.70
2018-09-08T18:20:53.784Z,17.70
2018-09-08T18:23:22.243Z,17.60
2018-09-08T18:25:50.692Z,17.50
2018-09-08T18:28:19.146Z,17.30
2018-09-08T18:30:47.603Z,17.20
2018-09-08T18:33:16.133Z,17.20
2018-09-08T18:35:44.592Z,17.10
2018-09-08T18:38:13.060Z,17.10
2018-09-08T18:40:41.544Z,17.00
2018-09-08T18:43:10.008Z,16.90
2018-09-08T18:45:38.529Z,16.80
2018-09-08T18:48:07.010Z,16.70
2018-09-08T18:50:35.586Z,16.60
2018-09-08T18:53:04.815Z,16.60
2018-09-08T18:55:33.378Z,16.50
2018-09-08T18:58:01.863Z,16.50
2018-09-08T19:00:30.402Z,16.40
2018-09-08T19:02:58.866Z,16.40
2018-09-08T19:05:27.343Z,16.30
2018-09-08T19:07:55.799Z,16.30
2018-09-08T19:10:24.278Z,16.40
2018-09-08T19:12:52.726Z,16.40
2018-09-08T19:15:21.206Z,16.50
2018-09-08T19:17:49.667Z,16.40
2018-09-08T19:20:23.507Z,16.30
2018-09-08T19:22:51.960Z,16.30
2018-09-08T19:25:20.471Z,16.10
2018-09-08T19:27:48.970Z,16.00
2018-09-08T19:30:17.463Z,16.00
2018-09-08T19:32:45.919Z,15.90
2018-09-08T19:35:19.718Z,15.90
2018-09-08T19:37:48.192Z,15.80
2018-09-08T19:40:22.106Z,15.80
2018-09-08T19:42:50.621Z,15.80
2018-09-08T19:45:19.070Z,15.80
2018-09-08T19:47:53.003Z,15.70
2018-09-08T19:50:21.486Z,15.70
2018-09-08T19:54:59.023Z,15.70
2018-09-08T19:57:32.982Z,15.60
2018-09-08T20:00:01.470Z,15.40
2018-09-08T20:02:29.930Z,15.40
2018-09-08T20:04:58.392Z,15.40
2018-09-08T20:07:26.888Z,15.30
2018-09-08T20:09:55.350Z,15.20
2018-09-08T20:12:23.837Z,15.20
2018-09-08T20:14:52.327Z,15.10
2018-09-08T20:17:20.830Z,15.10
2018-09-08T20:19:49.347Z,15.00
2018-09-08T20:22:17.762Z,15.00
2018-09-08T20:24:46.229Z,15.00
2018-09-08T20:27:14.698Z,15.00
2018-09-08T20:29:43.213Z,15.00
2018-09-08T20:32:11.718Z,15.00
2018-09-08T20:34:40.179Z,15.00
2018-09-08T20:37:08.656Z,15.00
2018-09-08T20:39:37.110Z,15.00
2018-09-08T20:42:05.716Z,15.00
2018-09-08T20:44:34.177Z,15.00
2018-09-08T20:47:02.662Z,15.00
2018-09-08T20:49:31.124Z,15.10
2018-09-08T20:51:59.589Z,15.10
2018-09-08T20:54:28.060Z,15.00
2018-09-08T20:56:56.523Z,14.90
2018-09-08T20:59:24.979Z,14.90
2018-09-08T21:01:53.444Z,14.80
2018-09-08T21:04:21.900Z,14.70
2018-09-08T21:06:50.699Z,14.70
2018-09-08T21:09:19.176Z,14.70
2018-09-08T21:11:47.634Z,14.70
2018-09-08T21:14:16.107Z,14.60
2018-09-08T21:16:44.658Z,14.60
2018-09-08T21:19:13.119Z,14.50
2018-09-08T21:21:41.579Z,14.50
2018-09-08T21:24:10.051Z,14.50
2018-09-08T21:26:38.524Z,14.50
2018-09-08T21:29:06.990Z,14.40
2018-09-08T21:31:35.488Z,14.40
2018-09-08T21:34:03.970Z,14.30
2018-09-08T21:36:32.606Z,14.30
2018-09-08T21:39:01.067Z,14.30
2018-09-08T21:41:29.543Z,14.20
2018-09-08T21:43:58.000Z,14.20
2018-09-08T21:46:26.459Z,14.20
2018-09-08T21:48:54.931Z,14.20
2018-09-08T21:51:23.381Z,14.10
2018-09-08T21:53:51.894Z,14.10
2018-09-08T21:56:20.346Z,14.00
2018-09-08T21:58:48.811Z,14.00
2018-09-08T22:01:22.576Z,14.00
2018-09-08T22:03:51.030Z,14.00
2018-09-08T22:06:19.550Z,13.90
2018-09-08T22:08:48.046Z,13.90
2018-09-08T22:11:16.658Z,13.90
2018-09-08T22:13:45.130Z,13.90
2018-09-08T22:16:14.327Z,13.90
2018-09-08T22:18:42.834Z,13.90
2018-09-08T22:21:11.310Z,13.80
2018-09-08T22:23:39.864Z,13.80
2018-09-08T22:26:08.336Z,13.80
2018-09-08T22:28:36.831Z,13.80
2018-09-08T22:31:05.638Z,13.70
2018-09-08T22:33:34.122Z,13.80
2018-09-08T22:36:02.595Z,13.80
2018-09-08T22:38:31.091Z,13.70
2018-09-08T22:40:59.540Z,13.70
2018-09-08T22:43:28.006Z,13.60
2018-09-08T22:45:56.483Z,13.60
2018-09-08T22:48:24.938Z,13.60
2018-09-08T22:50:53.383Z,13.60
2018-09-08T22:53:21.854Z,13.60
2018-09-08T22:55:50.356Z,13.60
2018-09-08T22:58:18.839Z,13.60
2018-09-08T23:00:47.310Z,13.60
2018-09-08T23:03:15.775Z,13.60
2018-09-08T23:05:44.248Z,13.50
2018-09-08T23:08:12.750Z,13.50
2018-09-08T23:10:41.211Z,13.50
2018-09-08T23:13:09.663Z,13.40
2018-09-08T23:15:38.162Z,13.50
2018-09-08T23:18:06.854Z,13.60
2018-09-08T23:20:35.309Z,13.60
2018-09-08T23:23:03.767Z,13.60
2018-09-08T23:25:32.291Z,13.60
2018-09-08T23:28:00.747Z,13.50
2018-09-08T23:30:29.222Z,13.50
2018-09-08T23:32:57.682Z,13.40
2018-09-08T23:35:26.158Z,13.40
2018-09-08T23:37:54.626Z,13.30
2018-09-08T23:40:23.095Z,13.30
2018-09-08T23:42:51.556Z,13.30
2018-09-08T23:45:20.030Z,13.30
2018-09-08T23:47:48.499Z,13.30
2018-09-08T23:50:16.991Z,13.30
2018-09-08T23:52:45.462Z,13.30
2018-09-08T23:55:13.922Z,13.30
2018-09-08T23:57:42.378Z,13.20
